Time;durP1;ratioP1;P1;durP2;ratioP2;P2;SDS_P1;SDS_P2;PMS_P1;PMS_P2;Temp;Humidity;BMP_temperature;BMP_pressure;BME280_temperature;BME280_humidity;BME280_pressure;Samples;Min_cycle;Max_cycle;Signal;HPM_P1;HPM_P2
2022/12/20 05:01:46;;;;;;;17.43;10.90;;;3.20;99.90;;;;;;5376416;23;20559;-72
2022/12/20 05:04:13;;;;;;;17.77;11.03;;;3.20;99.90;;;;;;4966220;28;20457;-72
2022/12/20 05:06:40;;;;;;;14.63;9.70;;;3.20;99.90;;;;;;4965439;28;20456;-72
2022/12/20 05:09:06;;;;;;;14.97;10.27;;;3.30;99.90;;;;;;4966411;28;20452;-72
2022/12/20 05:11:33;;;;;;;15.70;9.57;;;3.30;99.90;;;;;;4954905;28;21327;-72
2022/12/20 05:14:00;;;;;;;15.57;9.77;;;3.30;99.90;;;;;;4946841;29;20461;-72
2022/12/20 05:16:27;;;;;;;17.43;9.93;;;3.30;99.90;;;;;;4946528;29;20454;-72
2022/12/20 05:18:55;;;;;;;17.83;10.60;;;3.30;99.90;;;;;;4946914;28;20453;-72
2022/12/20 05:26:51;;;;;;;13.87;9.60;;;3.30;99.90;;;;;;4950214;29;20520;-72
2022/12/20 05:29:18;;;;;;;15.80;9.67;;;3.30;99.90;;;;;;4950750;29;20464;-72
2022/12/20 05:31:45;;;;;;;15.03;9.40;;;3.40;99.90;;;;;;4959521;28;21018;-62
2022/12/20 05:34:13;;;;;;;16.47;10.67;;;3.40;99.90;;;;;;4968412;28;20452;-63
2022/12/20 05:36:39;;;;;;;17.27;10.90;;;3.40;99.90;;;;;;4969478;28;20455;-67
2022/12/20 05:39:06;;;;;;;15.67;10.27;;;3.40;99.90;;;;;;4970282;28;20483;-67
2022/12/20 05:41:33;;;;;;;15.13;10.23;;;3.40;99.90;;;;;;4969627;28;20471;-67
2022/12/20 05:44:00;;;;;;;19.93;10.60;;;3.40;99.90;;;;;;4969701;28;20456;-68
2022/12/20 05:46:27;;;;;;;17.90;10.20;;;3.40;99.90;;;;;;4969180;28;20639;-67
2022/12/20 05:48:54;;;;;;;15.93;11.20;;;3.40;99.90;;;;;;4969508;28;20448;-67
2022/12/20 05:51:22;;;;;;;14.47;10.23;;;3.50;99.90;;;;;;4969400;28;20492;-67
2022/12/20 05:53:49;;;;;;;16.10;10.10;;;3.50;99.90;;;;;;4970075;28;20552;-67
2022/12/20 05:56:16;;;;;;;20.57;11.83;;;3.40;99.90;;;;;;4969130;28;20458;-67
2022/12/20 05:58:43;;;;;;;18.23;10.63;;;3.50;99.90;;;;;;4969376;28;20464;-67
2022/12/20 06:01:10;;;;;;;17.00;10.50;;;3.50;99.90;;;;;;4969330;28;20555;-67
2022/12/20 06:03:38;;;;;;;18.47;10.00;;;3.50;99.90;;;;;;4969487;28;20792;-67
2022/12/20 06:06:05;;;;;;;20.10;12.07;;;3.50;99.90;;;;;;4950404;28;20468;-68
2022/12/20 06:08:33;;;;;;;17.63;10.67;;;3.50;99.90;;;;;;4949873;28;20457;-67
2022/12/20 06:11:02;;;;;;;15.43;9.17;;;3.50;99.90;;;;;;4949521;28;20505;-68
2022/12/20 06:13:28;;;;;;;16.83;10.30;;;3.50;99.90;;;;;;4949727;29;20515;-68
2022/12/20 06:15:55;;;;;;;16.40;10.27;;;3.50;99.90;;;;;;4949526;29;20464;-68
2022/12/20 06:18:22;;;;;;;20.80;11.20;;;3.50;99.90;;;;;;4949708;28;20453;-68
2022/12/20 06:20:50;;;;;;;17.90;10.43;;;3.50;99.90;;;;;;4949496;28;20500;-68
2022/12/20 06:23:17;;;;;;;17.27;11.20;;;3.50;99.90;;;;;;4950372;28;20458;-68
2022/12/20 06:25:46;;;;;;;18.90;10.47;;;3.50;99.90;;;;;;4949921;29;20532;-68
2022/12/20 06:28:13;;;;;;;16.53;10.33;;;3.60;99.90;;;;;;4950003;29;20874;-68
2022/12/20 06:30:39;;;;;;;17.50;10.93;;;3.60;99.90;;;;;;4949774;28;20915;-68
2022/12/20 06:33:06;;;;;;;14.90;10.67;;;3.60;99.90;;;;;;4950127;29;20466;-68
2022/12/20 06:35:33;;;;;;;18.63;12.33;;;3.60;99.90;;;;;;4950515;28;20972;-68
2022/12/20 06:38:00;;;;;;;19.70;10.90;;;3.60;99.90;;;;;;4949665;29;20453;-68
2022/12/20 06:40:26;;;;;;;14.90;9.90;;;3.60;99.90;;;;;;4950283;28;20462;-68
2022/12/20 06:42:54;;;;;;;24.33;11.30;;;3.70;99.90;;;;;;4950357;29;21308;-68
2022/12/20 06:45:21;;;;;;;18.07;11.83;;;3.70;99.90;;;;;;4950604;28;20461;-68
2022/12/20 06:47:48;;;;;;;21.60;12.00;;;3.70;99.90;;;;;;4967677;28;20826;-68
2022/12/20 06:50:15;;;;;;;17.20;12.00;;;3.70;99.90;;;;;;4968249;28;20496;-70
2022/12/20 06:52:42;;;;;;;20.60;12.60;;;3.70;99.90;;;;;;4968160;28;20468;-69
2022/12/20 06:55:09;;;;;;;19.00;12.47;;;3.70;99.90;;;;;;4968463;28;20451;-70
2022/12/20 06:57:36;;;;;;;18.03;11.70;;;3.70;99.90;;;;;;4968645;28;20455;-69
2022/12/20 07:00:04;;;;;;;22.30;12.30;;;3.70;99.90;;;;;;4969049;28;20543;-69
2022/12/20 07:02:31;;;;;;;18.97;11.50;;;3.70;99.90;;;;;;4969065;28;20489;-70
2022/12/20 07:04:58;;;;;;;18.37;12.70;;;3.70;99.90;;;;;;4968669;28;20460;-69
2022/12/20 07:07:25;;;;;;;21.03;10.57;;;3.70;99.90;;;;;;4967846;28;20453;-70
2022/12/20 07:09:52;;;;;;;17.77;11.10;;;3.70;99.90;;;;;;4968546;28;20448;-70
2022/12/20 07:12:18;;;;;;;21.03;11.50;;;3.70;99.90;;;;;;4968728;28;20477;-70
2022/12/20 07:14:45;;;;;;;18.00;11.17;;;3.70;99.90;;;;;;4968648;28;20460;-70
2022/12/20 07:17:14;;;;;;;16.60;11.03;;;3.70;99.90;;;;;;4968070;28;20460;-69
2022/12/20 07:19:42;;;;;;;16.93;10.90;;;3.80;99.90;;;;;;4968578;28;20456;-69
2022/12/20 07:22:08;;;;;;;17.70;10.20;;;3.80;99.90;;;;;;4968645;28;20472;-69
2022/12/20 07:24:35;;;;;;;18.27;11.13;;;3.80;99.90;;;;;;4968620;28;20821;-70
2022/12/20 07:27:02;;;;;;;17.03;12.27;;;3.80;99.90;;;;;;4967739;28;20464;-70
2022/12/20 07:29:29;;;;;;;15.60;10.80;;;3.80;99.90;;;;;;4967825;28;20832;-69
2022/12/20 07:31:56;;;;;;;20.13;12.13;;;3.80;99.90;;;;;;4968210;28;20488;-70
2022/12/20 07:34:24;;;;;;;21.43;12.10;;;3.80;99.90;;;;;;4967963;28;20467;-70
2022/12/20 07:36:51;;;;;;;24.90;15.03;;;3.80;99.90;;;;;;4967403;28;20467;-70
2022/12/20 07:39:18;;;;;;;21.87;15.00;;;3.80;99.90;;;;;;4967097;28;20823;-70
2022/12/20 07:41:45;;;;;;;23.70;13.30;;;3.80;99.90;;;;;;4966618;28;20477;-70
2022/12/20 07:44:12;;;;;;;20.60;13.33;;;3.80;99.90;;;;;;4967193;28;21297;-70
2022/12/20 07:46:39;;;;;;;18.90;12.90;;;3.80;99.90;;;;;;4966147;28;20456;-71
2022/12/20 07:49:05;;;;;;;18.33;11.90;;;3.80;99.90;;;;;;4967322;28;20472;-70
2022/12/20 07:51:37;;;;;;;24.47;13.67;;;3.80;99.90;;;;;;4966947;28;20504;-69
2022/12/20 07:54:06;;;;;;;18.70;11.40;;;3.80;99.90;;;;;;4967444;28;20452;-70
2022/12/20 07:56:36;;;;;;;16.27;10.87;;;3.80;99.90;;;;;;4966683;28;20448;-70
2022/12/20 07:59:03;;;;;;;16.37;10.83;;;3.80;99.90;;;;;;4966744;28;20945;-69
2022/12/20 08:01:31;;;;;;;16.10;10.40;;;3.80;99.90;;;;;;4966525;28;20484;-70
2022/12/20 08:04:02;;;;;;;17.30;10.40;;;3.80;99.90;;;;;;4966985;28;20459;-68
2022/12/20 08:06:29;;;;;;;15.07;9.73;;;3.80;99.90;;;;;;4966283;28;20460;-67
2022/12/20 08:09:00;;;;;;;16.27;10.40;;;3.90;99.90;;;;;;4966911;28;20487;-68
2022/12/20 08:11:29;;;;;;;18.93;11.20;;;3.90;99.90;;;;;;4966308;28;20511;-70
2022/12/20 08:13:56;;;;;;;19.17;12.40;;;3.90;99.90;;;;;;4966065;28;20988;-70
2022/12/20 08:16:23;;;;;;;17.80;11.17;;;3.90;99.90;;;;;;4965849;28;20929;-70
2022/12/20 08:18:50;;;;;;;17.00;11.00;;;3.90;99.90;;;;;;4966766;28;20461;-67
2022/12/20 08:21:17;;;;;;;18.53;11.13;;;3.90;99.90;;;;;;4966373;28;20469;-68
2022/12/20 08:23:44;;;;;;;17.30;10.43;;;4.00;99.90;;;;;;4966960;28;21234;-68
2022/12/20 08:26:12;;;;;;;19.00;10.50;;;4.00;99.90;;;;;;4966140;28;20461;-68
2022/12/20 08:28:39;;;;;;;18.87;11.80;;;4.10;99.90;;;;;;4966687;28;20937;-68
2022/12/20 08:31:08;;;;;;;20.53;12.60;;;4.00;99.90;;;;;;4949470;28;20501;-68
2022/12/20 08:33:36;;;;;;;21.83;13.90;;;4.10;99.90;;;;;;4947755;29;20469;-68
2022/12/20 08:36:05;;;;;;;21.07;14.30;;;4.10;99.90;;;;;;4947456;29;20487;-68
2022/12/20 08:38:33;;;;;;;18.73;13.63;;;4.10;99.90;;;;;;4947951;29;20511;-68
2022/12/20 08:41:03;;;;;;;24.10;14.83;;;4.20;99.90;;;;;;4947792;28;20476;-70
2022/12/20 08:43:32;;;;;;;27.93;13.93;;;4.20;99.90;;;;;;4947667;29;20453;-70
2022/12/20 08:45:59;;;;;;;25.03;14.70;;;4.30;99.90;;;;;;4947797;29;20461;-68
2022/12/20 08:48:26;;;;;;;21.93;13.60;;;4.30;99.90;;;;;;4947740;29;20496;-70
2022/12/20 08:50:57;;;;;;;23.60;14.10;;;4.20;99.90;;;;;;4947627;28;20867;-70
2022/12/20 08:53:24;;;;;;;20.63;13.10;;;4.20;99.90;;;;;;4947476;28;20469;-69
2022/12/20 08:55:51;;;;;;;25.20;12.50;;;4.30;99.90;;;;;;4951056;29;20449;-69
2022/12/20 08:58:18;;;;;;;22.03;13.87;;;4.30;99.90;;;;;;4951378;29;20453;-69
2022/12/20 09:00:47;;;;;;;20.63;16.17;;;4.30;99.90;;;;;;4951214;28;20485;-69
2022/12/20 09:03:14;;;;;;;25.63;16.77;;;4.40;99.90;;;;;;4949588;29;20472;-69
2022/12/20 09:05:47;;;;;;;55.43;46.03;;;4.40;99.90;;;;;;4950059;29;20840;-69
2022/12/20 09:08:15;;;;;;;50.50;45.00;;;4.40;99.90;;;;;;4950091;29;20449;-69
2022/12/20 09:10:42;;;;;;;39.67;32.43;;;4.40;99.90;;;;;;4950532;28;20511;-69
2022/12/20 09:13:09;;;;;;;42.27;31.40;;;4.40;99.90;;;;;;4950230;28;20449;-69
2022/12/20 09:15:36;;;;;;;30.10;26.90;;;4.40;99.90;;;;;;4950240;29;20465;-69
2022/12/20 09:18:04;;;;;;;37.00;23.37;;;4.40;99.90;;;;;;4950520;29;20548;-69
2022/12/20 09:20:31;;;;;;;28.60;16.43;;;4.50;99.90;;;;;;4950705;28;20456;-69
2022/12/20 09:22:59;;;;;;;20.13;15.23;;;4.50;99.90;;;;;;4950623;29;20980;-69
2022/12/20 09:25:26;;;;;;;30.43;24.07;;;4.60;99.90;;;;;;4950807;29;20780;-69
2022/12/20 09:27:54;;;;;;;32.63;27.67;;;4.60;99.90;;;;;;4950200;29;20452;-69
2022/12/20 09:30:21;;;;;;;28.20;22.80;;;4.60;99.90;;;;;;4950290;28;20456;-69
2022/12/20 09:32:47;;;;;;;37.23;22.97;;;4.60;99.90;;;;;;4950250;29;20592;-69
2022/12/20 09:35:16;;;;;;;26.57;21.17;;;4.60;99.90;;;;;;4950316;29;20463;-69
2022/12/20 09:37:42;;;;;;;32.77;23.13;;;4.70;99.90;;;;;;4950067;29;20457;-69
2022/12/20 09:40:17;;;;;;;42.30;28.50;;;4.70;99.90;;;;;;4950503;29;20461;-69
2022/12/20 09:42:44;;;;;;;23.83;17.57;;;4.70;99.90;;;;;;4950432;29;20456;-69
2022/12/20 09:45:22;;;;;;;30.10;18.10;;;4.60;99.90;;;;;;4950387;29;20456;-69
2022/12/20 09:47:48;;;;;;;34.73;19.20;;;4.60;99.90;;;;;;4949500;29;20460;-69
2022/12/20 09:50:19;;;;;;;31.03;18.53;;;4.60;99.90;;;;;;4950505;28;20472;-69
2022/12/20 09:53:01;;;;;;;30.33;20.83;;;4.70;99.90;;;;;;4949928;29;20477;-69
2022/12/20 09:55:34;;;;;;;29.70;18.20;;;4.80;99.90;;;;;;4950284;29;20445;-69
2022/12/20 09:58:18;;;;;;;35.30;19.40;;;4.80;99.90;;;;;;4949153;29;20764;-69
2022/12/20 10:00:47;;;;;;;28.87;18.40;;;4.80;99.90;;;;;;4950201;28;20488;-69
2022/12/20 10:03:20;;;;;;;29.20;18.23;;;4.90;99.90;;;;;;4950618;29;20457;-69
2022/12/20 10:05:52;;;;;;;33.50;19.13;;;4.90;99.90;;;;;;4950122;28;20462;-69
2022/12/20 10:08:32;;;;;;;32.93;20.60;;;5.00;99.90;;;;;;4950472;29;20554;-69
2022/12/20 10:11:05;;;;;;;39.40;21.67;;;5.00;99.90;;;;;;4950148;28;20481;-69
2022/12/20 10:13:53;;;;;;;37.83;21.53;;;5.10;99.90;;;;;;4949959;29;20464;-69
2022/12/20 10:16:34;;;;;;;30.20;18.60;;;5.10;99.90;;;;;;4949498;29;21039;-69
2022/12/20 10:19:17;;;;;;;34.27;20.27;;;5.10;99.90;;;;;;4950098;29;20779;-69
2022/12/20 10:21:52;;;;;;;31.93;19.13;;;5.20;99.90;;;;;;4948353;28;20817;-69
2022/12/20 10:24:20;;;;;;;31.83;20.00;;;5.20;99.90;;;;;;4949136;29;20441;-69
2022/12/20 10:26:50;;;;;;;28.57;18.50;;;5.20;99.90;;;;;;4948090;29;20972;-69
2022/12/20 10:29:17;;;;;;;29.90;18.90;;;5.30;99.90;;;;;;4949259;29;20488;-70
2022/12/20 10:31:44;;;;;;;29.67;19.93;;;5.30;99.90;;;;;;4949095;28;20501;-69
2022/12/20 10:34:11;;;;;;;32.50;21.40;;;5.40;99.90;;;;;;4949019;29;20454;-69
2022/12/20 10:36:38;;;;;;;26.90;19.53;;;5.40;99.90;;;;;;4948422;29;20457;-69
2022/12/20 10:39:08;;;;;;;33.87;21.40;;;5.40;99.90;;;;;;4949240;29;20505;-69
2022/12/20 10:41:48;;;;;;;35.03;20.87;;;5.40;99.90;;;;;;4948962;28;20480;-69
2022/12/20 10:44:22;;;;;;;29.37;19.40;;;5.40;99.90;;;;;;4949330;29;20466;-69
2022/12/20 10:46:53;;;;;;;31.70;19.00;;;5.40;99.90;;;;;;4947437;29;20432;-69
2022/12/20 10:49:31;;;;;;;27.93;18.63;;;5.50;99.90;;;;;;4948601;29;20453;-69
2022/12/20 10:52:00;;;;;;;30.27;18.50;;;5.50;99.90;;;;;;4948503;28;21016;-69
2022/12/20 10:54:33;;;;;;;25.37;16.10;;;5.50;99.90;;;;;;4948296;29;20457;-69
2022/12/20 10:57:01;;;;;;;32.33;20.50;;;5.50;99.90;;;;;;4948015;29;20942;-69
2022/12/20 10:59:33;;;;;;;43.93;27.07;;;5.60;99.90;;;;;;4948006;28;20547;-70
2022/12/20 11:02:00;;;;;;;38.70;24.87;;;5.70;99.90;;;;;;4948519;28;20481;-70
2022/12/20 11:04:30;;;;;;;34.13;23.93;;;5.70;99.90;;;;;;4948320;29;20489;-69
2022/12/20 11:06:58;;;;;;;27.80;18.30;;;5.70;99.90;;;;;;4947420;29;20970;-69
2022/12/20 11:09:28;;;;;;;34.90;21.10;;;5.80;99.90;;;;;;4948449;29;20469;-69
2022/12/20 11:12:04;;;;;;;33.47;22.07;;;5.80;99.90;;;;;;4947799;28;20504;-69
2022/12/20 11:14:32;;;;;;;36.63;20.00;;;5.80;99.90;;;;;;4948022;29;20457;-70
2022/12/20 11:17:00;;;;;;;33.63;20.20;;;5.80;99.90;;;;;;4946798;28;20442;-69
2022/12/20 11:19:38;;;;;;;30.43;20.60;;;5.90;99.90;;;;;;4948241;29;20469;-70
2022/12/20 11:22:15;;;;;;;31.93;20.90;;;5.90;99.90;;;;;;4946789;28;20469;-69
2022/12/20 11:24:47;;;;;;;29.53;20.27;;;6.00;99.90;;;;;;4948559;29;20969;-71
2022/12/20 11:27:26;;;;;;;23.23;14.87;;;6.00;99.90;;;;;;4948804;29;20548;-70
2022/12/20 11:30:08;;;;;;;30.60;18.20;;;5.90;99.90;;;;;;4949599;29;20441;-69
2022/12/20 11:33:03;;;;;;;24.90;17.20;;;5.90;99.90;;;;;;4949513;28;20493;-69
2022/12/20 11:35:42;;;;;;;24.97;16.07;;;5.90;99.90;;;;;;4949997;29;20472;-69
2022/12/20 11:38:17;;;;;;;32.40;16.20;;;5.90;99.90;;;;;;4949349;29;20457;-69
2022/12/20 11:40:51;;;;;;;26.90;16.00;;;6.00;99.90;;;;;;4949949;28;20480;-69
2022/12/20 11:43:33;;;;;;;27.67;17.70;;;6.00;99.90;;;;;;4949479;29;20436;-69
2022/12/20 11:46:18;;;;;;;25.90;17.60;;;6.10;99.90;;;;;;4949236;29;20437;-69
2022/12/20 11:48:56;;;;;;;31.70;18.83;;;6.20;99.90;;;;;;4950162;29;20438;-69
2022/12/20 11:51:25;;;;;;;23.70;14.57;;;6.20;99.90;;;;;;4949565;28;20540;-68
2022/12/20 11:53:57;;;;;;;29.33;16.00;;;6.30;99.90;;;;;;4949373;29;20444;-69
2022/12/20 11:56:29;;;;;;;25.97;15.70;;;6.30;99.90;;;;;;4948070;29;20917;-68
2022/12/20 11:59:03;;;;;;;24.17;14.83;;;6.30;99.90;;;;;;4948256;29;20442;-68
2022/12/20 12:01:34;;;;;;;26.53;17.50;;;6.30;99.90;;;;;;4948221;28;20767;-69
2022/12/20 12:04:09;;;;;;;23.20;15.23;;;6.40;99.90;;;;;;4948703;29;20461;-70
2022/12/20 12:06:41;;;;;;;26.07;16.40;;;6.40;99.90;;;;;;4947219;29;20455;-69
2022/12/20 12:09:16;;;;;;;28.23;17.73;;;6.40;99.90;;;;;;4947910;29;20520;-69
2022/12/20 12:11:47;;;;;;;26.97;16.40;;;6.50;99.90;;;;;;4947613;28;20473;-69
2022/12/20 12:14:28;;;;;;;26.37;16.53;;;6.50;99.90;;;;;;4947648;29;20454;-70
2022/12/20 12:17:02;;;;;;;31.17;17.10;;;6.50;99.90;;;;;;4947050;29;20858;-68
2022/12/20 12:19:31;;;;;;;27.70;16.47;;;6.50;99.90;;;;;;4948719;29;20457;-69
2022/12/20 12:22:03;;;;;;;28.30;17.50;;;6.50;99.90;;;;;;4950473;28;20473;-69
2022/12/20 12:24:34;;;;;;;27.90;17.60;;;6.50;99.90;;;;;;4950787;29;20508;-69
2022/12/20 12:27:02;;;;;;;27.83;16.80;;;6.50;99.90;;;;;;4949755;29;20954;-69
2022/12/20 12:29:33;;;;;;;26.83;17.40;;;6.50;99.90;;;;;;4950195;28;20449;-69
2022/12/20 12:32:06;;;;;;;30.30;18.33;;;6.50;99.90;;;;;;4950264;28;20501;-69
2022/12/20 12:34:46;;;;;;;30.60;19.40;;;6.50;99.90;;;;;;4950454;29;20495;-69
2022/12/20 12:37:49;;;;;;;29.77;19.03;;;6.60;99.90;;;;;;4950344;29;20457;-69
2022/12/20 12:40:47;;;;;;;24.23;18.33;;;6.60;99.90;;;;;;4951262;28;20523;-70
2022/12/20 12:43:44;;;;;;;28.87;17.50;;;6.60;99.90;;;;;;4950377;29;20453;-69
2022/12/20 12:46:16;;;;;;;32.97;20.30;;;6.70;99.90;;;;;;4946714;29;20446;-68
2022/12/20 12:48:47;;;;;;;30.63;19.57;;;6.80;99.90;;;;;;4948204;29;20441;-68
2022/12/20 12:51:15;;;;;;;29.97;20.43;;;6.80;99.90;;;;;;4948214;28;20481;-69
2022/12/20 12:53:49;;;;;;;28.83;20.30;;;6.90;99.90;;;;;;4947935;29;20576;-69
2022/12/20 12:56:47;;;;;;;31.60;18.87;;;6.90;99.90;;;;;;4948064;29;20496;-69
2022/12/20 12:59:24;;;;;;;29.93;17.60;;;6.90;99.90;;;;;;4870103;29;20453;-69
2022/12/20 13:01:54;;;;;;;32.47;18.80;;;6.90;99.90;;;;;;4935553;28;20505;-69
2022/12/20 13:04:27;;;;;;;28.40;18.60;;;6.80;99.90;;;;;;4949101;29;20436;-68
2022/12/20 13:06:58;;;;;;;29.10;18.63;;;6.80;99.90;;;;;;4948387;29;20460;-69
2022/12/20 13:09:52;;;;;;;30.10;17.70;;;6.90;99.90;;;;;;4948950;29;20476;-69
2022/12/20 13:12:57;;;;;;;22.77;15.90;;;6.90;99.90;;;;;;4904061;29;20904;-68
2022/12/20 13:15:52;;;;;;;35.57;20.30;;;7.00;99.90;;;;;;4948930;29;20940;-69
2022/12/20 13:18:28;;;;;;;28.47;16.87;;;7.10;99.90;;;;;;4949010;29;20468;-69
2022/12/20 13:21:41;;;;;;;23.50;14.50;;;7.20;99.90;;;;;;4948996;28;20473;-68
2022/12/20 13:24:47;;;;;;;20.40;14.30;;;7.20;99.90;;;;;;4948538;29;20533;-69
2022/12/20 13:27:23;;;;;;;20.90;14.20;;;7.20;99.90;;;;;;4948583;29;20485;-69
2022/12/20 13:30:22;;;;;;;21.70;16.60;;;7.20;99.90;;;;;;4948374;29;20453;-69
2022/12/20 13:33:23;;;;;;;28.70;18.97;;;7.20;99.90;;;;;;4942894;29;20501;-69
2022/12/20 13:36:32;;;;;;;26.13;18.07;;;7.20;99.90;;;;;;4947437;29;20464;-69
2022/12/20 13:39:01;;;;;;;22.77;16.30;;;7.20;99.90;;;;;;4926356;29;20516;-68
2022/12/20 13:41:34;;;;;;;26.77;18.10;;;7.20;99.90;;;;;;4950374;28;20473;-69
2022/12/20 13:44:10;;;;;;;27.53;18.97;;;7.30;99.90;;;;;;4951553;29;20780;-69
2022/12/20 13:46:46;;;;;;;26.73;19.20;;;7.30;99.90;;;;;;4950609;29;20465;-68
2022/12/20 13:49:22;;;;;;;29.63;18.93;;;7.30;99.90;;;;;;4950575;29;20925;-68
2022/12/20 13:52:12;;;;;;;23.97;15.33;;;7.30;99.90;;;;;;4947618;28;20560;-68
2022/12/20 13:54:41;;;;;;;26.43;16.27;;;7.30;99.90;;;;;;4951384;29;20544;-68
2022/12/20 13:57:14;;;;;;;22.03;15.33;;;7.30;99.90;;;;;;4950397;29;20825;-69
2022/12/20 13:59:46;;;;;;;26.30;18.43;;;7.30;99.90;;;;;;4950807;29;20910;-69
2022/12/20 14:02:20;;;;;;;23.00;15.80;;;7.40;99.90;;;;;;4950713;28;20489;-69
2022/12/20 14:04:57;;;;;;;25.87;17.80;;;7.40;99.90;;;;;;4950748;29;20457;-69
2022/12/20 14:07:27;;;;;;;26.93;17.40;;;7.40;99.90;;;;;;4951017;29;20459;-69
2022/12/20 14:10:00;;;;;;;23.80;18.10;;;7.40;99.90;;;;;;4951533;29;20465;-68
2022/12/20 14:12:29;;;;;;;30.80;19.47;;;7.40;99.90;;;;;;4951122;28;20492;-68
2022/12/20 14:14:57;;;;;;;27.90;20.63;;;7.40;99.90;;;;;;4951279;29;20450;-68
2022/12/20 14:17:26;;;;;;;24.07;18.37;;;7.40;99.90;;;;;;4951176;29;20465;-69
2022/12/20 14:20:06;;;;;;;23.67;14.97;;;7.40;99.90;;;;;;4950941;29;20516;-68
2022/12/20 14:22:35;;;;;;;18.70;13.27;;;7.40;99.90;;;;;;4950910;28;20555;-69
2022/12/20 14:25:05;;;;;;;20.70;13.50;;;7.40;99.90;;;;;;4951414;29;20488;-68
2022/12/20 14:27:36;;;;;;;15.70;10.43;;;7.40;99.90;;;;;;4950830;29;20462;-68
2022/12/20 14:30:06;;;;;;;16.73;11.07;;;7.40;99.90;;;;;;4951341;29;20803;-68
2022/12/20 14:32:33;;;;;;;14.20;9.73;;;7.40;99.90;;;;;;4950681;28;20512;-69
2022/12/20 14:35:00;;;;;;;11.87;8.80;;;7.50;99.90;;;;;;4950327;29;20457;-68
2022/12/20 14:37:30;;;;;;;22.43;13.73;;;7.40;99.90;;;;;;4949915;29;20457;-69
2022/12/20 14:40:02;;;;;;;24.77;12.53;;;7.40;99.90;;;;;;4950228;29;20457;-68
2022/12/20 14:42:33;;;;;;;14.17;10.00;;;7.50;99.90;;;;;;4950224;28;20486;-69
2022/12/20 14:45:06;;;;;;;17.40;11.27;;;7.50;99.90;;;;;;4949008;29;20442;-69
2022/12/20 14:47:33;;;;;;;24.20;15.73;;;7.50;99.90;;;;;;4948448;29;20457;-70
2022/12/20 14:50:02;;;;;;;22.67;15.27;;;7.50;99.90;;;;;;4950137;29;20714;-69
2022/12/20 14:52:34;;;;;;;20.20;14.67;;;7.50;99.90;;;;;;4948539;28;20999;-69
2022/12/20 14:55:07;;;;;;;18.23;12.90;;;7.50;99.90;;;;;;4950098;29;20457;-69
2022/12/20 14:57:39;;;;;;;20.37;14.80;;;7.60;99.90;;;;;;4948938;29;20464;-69
2022/12/20 15:00:13;;;;;;;22.63;17.20;;;7.60;99.90;;;;;;4949184;29;20442;-69
2022/12/20 15:02:42;;;;;;;26.23;19.03;;;7.70;99.90;;;;;;4949398;29;20745;-69
2022/12/20 15:05:25;;;;;;;30.37;21.60;;;7.60;99.90;;;;;;4949524;29;20903;-69
2022/12/20 15:07:51;;;;;;;34.37;21.70;;;7.70;99.90;;;;;;4947686;29;20805;-69
2022/12/20 15:10:19;;;;;;;32.20;21.10;;;7.60;99.90;;;;;;4949132;28;20648;-69
2022/12/20 15:12:46;;;;;;;28.50;19.53;;;7.60;99.90;;;;;;4948917;29;21001;-68
2022/12/20 15:15:14;;;;;;;28.40;20.80;;;7.60;99.90;;;;;;4949210;29;20465;-69
2022/12/20 15:17:41;;;;;;;40.27;25.67;;;7.60;99.90;;;;;;4948403;29;20958;-69
2022/12/20 15:20:12;;;;;;;38.37;25.80;;;7.60;99.90;;;;;;4948852;28;20458;-69
2022/12/20 15:22:40;;;;;;;40.03;26.33;;;7.60;99.90;;;;;;4948797;29;20465;-68
2022/12/20 15:25:16;;;;;;;36.37;25.20;;;7.60;99.90;;;;;;4948783;29;20460;-69
2022/12/20 15:27:44;;;;;;;34.27;24.00;;;7.50;99.90;;;;;;4948369;29;20914;-69
2022/12/20 15:30:13;;;;;;;42.43;29.30;;;7.50;99.90;;;;;;4948851;29;20457;-69
2022/12/20 15:32:41;;;;;;;45.53;32.87;;;7.50;99.90;;;;;;4948924;28;20462;-69
2022/12/20 15:35:13;;;;;;;42.30;28.77;;;7.40;99.90;;;;;;4948808;29;20453;-69
2022/12/20 15:37:40;;;;;;;41.13;28.27;;;7.40;99.90;;;;;;4948009;29;20953;-69
2022/12/20 15:40:13;;;;;;;41.00;26.43;;;7.40;99.90;;;;;;4948639;29;20454;-69
2022/12/20 15:42:41;;;;;;;32.97;24.33;;;7.40;99.90;;;;;;4948821;29;20438;-69
2022/12/20 15:45:13;;;;;;;37.07;24.73;;;7.40;99.90;;;;;;4949014;29;20577;-69
2022/12/20 15:47:41;;;;;;;37.30;23.20;;;7.40;99.90;;;;;;4948230;29;20445;-69
2022/12/20 15:50:10;;;;;;;40.63;24.57;;;7.40;99.90;;;;;;4948488;29;20479;-69
2022/12/20 15:52:36;;;;;;;36.03;23.50;;;7.40;99.90;;;;;;4948080;28;20532;-69
2022/12/20 15:55:03;;;;;;;35.30;25.00;;;7.30;99.90;;;;;;4948180;29;20536;-69
2022/12/20 15:57:30;;;;;;;36.90;25.17;;;7.30;99.90;;;;;;4947822;29;20461;-68
2022/12/20 15:59:57;;;;;;;40.67;24.83;;;7.30;99.90;;;;;;4948343;29;20457;-69
2022/12/20 16:02:27;;;;;;;35.60;24.60;;;7.30;99.90;;;;;;4964645;28;20480;-72
2022/12/20 16:04:54;;;;;;;41.60;26.00;;;7.30;99.90;;;;;;4966391;28;20548;-72
2022/12/20 16:07:21;;;;;;;37.90;27.07;;;7.30;99.90;;;;;;4966399;28;20449;-72
2022/12/20 16:09:48;;;;;;;35.10;27.23;;;7.30;99.90;;;;;;4967164;28;20457;-72
2022/12/20 16:12:18;;;;;;;36.70;24.43;;;7.30;99.90;;;;;;4967304;28;21027;-72
2022/12/20 16:14:44;;;;;;;37.00;25.70;;;7.20;99.90;;;;;;4967543;28;20500;-72
2022/12/20 16:17:13;;;;;;;33.10;23.70;;;7.20;99.90;;;;;;4965849;28;20460;-72
2022/12/20 16:19:42;;;;;;;30.33;22.57;;;7.20;99.90;;;;;;4966858;28;20456;-72
2022/12/20 16:22:15;;;;;;;36.17;24.00;;;7.20;99.90;;;;;;4966428;28;20668;-72
2022/12/20 16:24:42;;;;;;;31.70;24.13;;;7.20;99.90;;;;;;4966951;28;20531;-72
2022/12/20 16:27:09;;;;;;;36.13;25.03;;;7.10;99.90;;;;;;4966058;28;20708;-72
2022/12/20 16:29:36;;;;;;;34.27;24.20;;;7.20;99.90;;;;;;4966186;28;20824;-72
2022/12/20 16:32:06;;;;;;;53.77;32.63;;;7.10;99.90;;;;;;4966600;28;20934;-72
2022/12/20 16:34:33;;;;;;;92.77;47.00;;;7.10;99.90;;;;;;4966724;28;20492;-72
2022/12/20 16:37:01;;;;;;;88.57;47.10;;;7.10;99.90;;;;;;4966232;28;20498;-72
2022/12/20 16:39:28;;;;;;;60.20;35.83;;;7.10;99.90;;;;;;4966273;28;20453;-72
2022/12/20 16:41:55;;;;;;;56.03;34.83;;;7.10;99.90;;;;;;4966212;28;20480;-72
2022/12/20 16:44:22;;;;;;;61.40;34.70;;;7.10;99.90;;;;;;4966269;28;20463;-72
2022/12/20 16:46:48;;;;;;;50.73;31.90;;;7.10;99.90;;;;;;4966273;28;20464;-72
2022/12/20 16:49:16;;;;;;;46.93;30.80;;;7.10;99.90;;;;;;4966505;28;20457;-72
2022/12/20 16:51:45;;;;;;;44.20;28.17;;;7.10;99.90;;;;;;4966532;28;20480;-72
2022/12/20 16:54:15;;;;;;;45.20;28.00;;;7.10;99.90;;;;;;4966758;28;20492;-72
2022/12/20 16:56:42;;;;;;;45.83;27.97;;;7.00;99.90;;;;;;4966045;28;20437;-72
2022/12/20 16:59:09;;;;;;;31.90;24.40;;;7.10;99.90;;;;;;4966233;28;20550;-72
2022/12/20 17:01:39;;;;;;;36.60;24.60;;;7.10;99.90;;;;;;4965864;28;20492;-72
2022/12/20 17:04:06;;;;;;;40.00;25.00;;;7.10;99.90;;;;;;4966340;28;20460;-72
2022/12/20 17:06:34;;;;;;;32.93;23.43;;;7.10;99.90;;;;;;4965692;28;20488;-72
2022/12/20 17:09:01;;;;;;;35.53;24.50;;;7.00;99.90;;;;;;4966599;28;20457;-72
2022/12/20 17:11:31;;;;;;;27.43;20.27;;;7.00;99.90;;;;;;4966099;28;20477;-72
2022/12/20 17:13:58;;;;;;;32.47;21.30;;;7.00;99.90;;;;;;4965640;28;20500;-72
2022/12/20 17:16:26;;;;;;;31.23;22.67;;;7.00;99.90;;;;;;4968019;28;20563;-72
2022/12/20 17:18:55;;;;;;;33.50;23.03;;;7.00;99.90;;;;;;4956033;28;20450;-72
2022/12/20 17:21:27;;;;;;;34.87;23.90;;;7.00;99.90;;;;;;4950513;29;20481;-72
2022/12/20 17:23:54;;;;;;;38.77;26.90;;;6.90;99.90;;;;;;4951075;28;20449;-72
2022/12/20 17:26:23;;;;;;;44.97;30.80;;;6.90;99.90;;;;;;4969710;28;20460;-72
2022/12/20 17:28:52;;;;;;;33.17;24.27;;;6.90;99.90;;;;;;4970022;28;20945;-72
2022/12/20 17:31:26;;;;;;;36.60;25.20;;;6.80;99.90;;;;;;4970402;28;20490;-72
2022/12/20 17:33:53;;;;;;;35.70;25.20;;;6.80;99.90;;;;;;4969906;28;20841;-72
2022/12/20 17:36:20;;;;;;;33.40;24.27;;;6.80;99.90;;;;;;4968957;28;20452;-72
2022/12/20 17:38:48;;;;;;;38.40;27.97;;;6.80;99.90;;;;;;4970259;28;20539;-75
2022/12/20 17:41:22;;;;;;;37.57;25.90;;;6.70;99.90;;;;;;4970122;28;20472;-72
2022/12/20 17:43:48;;;;;;;40.97;29.27;;;6.70;99.90;;;;;;4968941;28;20441;-72
2022/12/20 17:46:17;;;;;;;44.70;27.13;;;7.00;99.90;;;;;;4969506;28;20221;-72
2022/12/20 17:48:44;;;;;;;46.20;34.37;;;7.00;99.90;;;;;;4970159;28;20510;-72
2022/12/20 17:51:16;;;;;;;48.70;29.53;;;6.90;99.90;;;;;;4964179;28;20925;-72
2022/12/20 17:53:43;;;;;;;47.80;32.50;;;6.90;99.90;;;;;;4950831;28;20603;-72
2022/12/20 17:56:13;;;;;;;46.93;31.67;;;6.80;99.90;;;;;;4949495;29;20461;-72
2022/12/20 17:58:40;;;;;;;46.10;32.20;;;6.80;99.90;;;;;;4950501;29;20448;-72
2022/12/20 18:01:11;;;;;;;44.33;30.83;;;6.80;99.90;;;;;;4949989;28;20596;-72
2022/12/20 18:03:40;;;;;;;46.37;32.07;;;6.80;99.90;;;;;;4949983;29;20456;-72